Time;durP1;ratioP1;P1;durP2;ratioP2;P2;SDS_P1;SDS_P2;PMS_P1;PMS_P2;Temp;Humidity;BMP_temperature;BMP_pressure;BME280_temperature;BME280_humidity;BME280_pressure;Samples;Min_cycle;Max_cycle;Signal;HPM_P1;HPM_P2
2024/01/23 00:00:47;;;;;;;61.28;12.00;;;6.30;99.90;;;;;;5077279;28;20083;-76
2024/01/23 00:03:13;;;;;;;62.22;12.88;;;6.30;99.90;;;;;;5079393;28;20049;-76
2024/01/23 00:05:39;;;;;;;58.20;12.25;;;6.30;99.90;;;;;;5071336;28;20048;-76
2024/01/23 00:08:04;;;;;;;62.47;10.48;;;6.30;99.90;;;;;;5079231;28;20045;-76
2024/01/23 00:10:30;;;;;;;71.10;11.90;;;6.30;99.90;;;;;;5080622;28;20036;-76
2024/01/23 00:12:56;;;;;;;62.05;12.15;;;6.20;99.90;;;;;;5078773;28;20043;-76
2024/01/23 00:15:21;;;;;;;59.08;11.60;;;6.20;99.90;;;;;;5074849;28;20046;-76
2024/01/23 00:17:47;;;;;;;52.13;12.27;;;6.20;99.90;;;;;;5068419;28;20044;-76
2024/01/23 00:20:14;;;;;;;58.60;12.65;;;6.10;99.90;;;;;;5085867;28;20048;-76
2024/01/23 00:22:39;;;;;;;51.80;10.77;;;6.10;99.90;;;;;;5082981;28;20481;-76
2024/01/23 00:25:05;;;;;;;62.80;12.60;;;6.10;99.90;;;;;;5079238;28;20056;-76
2024/01/23 00:27:31;;;;;;;63.35;12.48;;;6.00;99.90;;;;;;5084141;28;20127;-76
2024/01/23 00:29:57;;;;;;;54.05;11.13;;;6.00;99.90;;;;;;5082345;28;20051;-76
2024/01/23 00:32:25;;;;;;;57.72;12.77;;;6.00;99.90;;;;;;5087961;28;20131;-76
2024/01/23 00:34:50;;;;;;;57.80;11.60;;;6.00;99.90;;;;;;5088444;28;20131;-76
2024/01/23 00:37:16;;;;;;;44.83;10.27;;;6.00;99.90;;;;;;5088953;28;20077;-76
2024/01/23 00:39:42;;;;;;;54.33;11.90;;;6.00;99.90;;;;;;5088224;28;20044;-76
2024/01/23 00:42:08;;;;;;;74.07;13.43;;;5.90;99.90;;;;;;5067677;28;20044;-76
2024/01/23 00:44:34;;;;;;;58.78;11.10;;;5.90;99.90;;;;;;5087188;28;20051;-76
2024/01/23 00:46:59;;;;;;;72.10;10.80;;;5.90;99.90;;;;;;5076357;28;20055;-76
2024/01/23 00:49:25;;;;;;;72.57;11.88;;;5.90;99.90;;;;;;5089179;28;20044;-76
2024/01/23 00:51:51;;;;;;;61.70;13.73;;;6.00;99.90;;;;;;5090166;28;20047;-76
2024/01/23 00:54:16;;;;;;;62.83;10.82;;;6.00;99.90;;;;;;5089656;28;20106;-76
2024/01/23 00:56:42;;;;;;;63.35;11.77;;;6.00;99.90;;;;;;5086791;28;20106;-76
2024/01/23 00:59:09;;;;;;;60.17;12.40;;;6.10;99.90;;;;;;5072991;28;20048;-76
2024/01/23 01:01:35;;;;;;;65.05;13.48;;;6.10;99.90;;;;;;5080950;28;20500;-76
2024/01/23 01:04:02;;;;;;;50.05;10.27;;;6.20;99.90;;;;;;5077257;28;20052;-76
2024/01/23 01:06:29;;;;;;;73.65;12.43;;;6.20;99.90;;;;;;5074766;28;20053;-76
2024/01/23 01:08:55;;;;;;;55.47;10.63;;;6.20;99.90;;;;;;5089618;28;20165;-76
2024/01/23 01:11:20;;;;;;;68.05;12.75;;;6.20;99.90;;;;;;5087984;28;20386;-76
2024/01/23 01:13:46;;;;;;;60.53;11.77;;;6.20;99.90;;;;;;5084715;28;20123;-76
2024/01/23 01:16:12;;;;;;;56.53;11.23;;;6.30;99.90;;;;;;5081084;28;20048;-76
2024/01/23 01:18:40;;;;;;;48.80;10.23;;;6.30;99.90;;;;;;5086012;28;20100;-76
2024/01/23 01:21:06;;;;;;;57.25;10.30;;;6.30;99.90;;;;;;5076632;28;20140;-76
2024/01/23 01:23:31;;;;;;;61.05;12.80;;;6.30;99.90;;;;;;5075087;28;20078;-76
2024/01/23 01:25:57;;;;;;;61.92;12.30;;;6.30;99.90;;;;;;5076151;28;20463;-76
2024/01/23 01:28:23;;;;;;;57.00;10.90;;;6.30;99.90;;;;;;5075182;28;20048;-76
2024/01/23 01:30:48;;;;;;;52.95;11.95;;;6.30;99.90;;;;;;5076863;28;20045;-76
2024/01/23 01:33:14;;;;;;;66.68;11.80;;;6.30;99.90;;;;;;5071431;28;20048;-76
2024/01/23 01:35:40;;;;;;;54.05;11.80;;;6.40;99.90;;;;;;5085752;28;20396;-76
2024/01/23 01:38:06;;;;;;;55.47;11.15;;;6.40;99.90;;;;;;5083379;28;20050;-76
2024/01/23 01:40:31;;;;;;;74.10;12.65;;;6.30;99.90;;;;;;5076236;28;20049;-76
2024/01/23 01:42:57;;;;;;;53.53;12.60;;;6.30;99.90;;;;;;5082881;28;20052;-76
2024/01/23 01:45:23;;;;;;;68.28;11.82;;;6.30;99.90;;;;;;5074619;28;20055;-76
2024/01/23 01:47:50;;;;;;;46.30;10.38;;;6.30;99.90;;;;;;5078998;28;20397;-76
2024/01/23 01:50:16;;;;;;;54.92;12.68;;;6.40;99.90;;;;;;5087964;28;20097;-76
2024/01/23 01:52:42;;;;;;;83.25;13.77;;;6.30;99.90;;;;;;5088204;28;20060;-75
2024/01/23 01:55:09;;;;;;;66.72;12.52;;;6.30;99.90;;;;;;5081356;28;20057;-75
2024/01/23 01:57:39;;;;;;;66.28;14.32;;;6.30;99.90;;;;;;5070859;28;20040;-76
2024/01/23 02:00:08;;;;;;;69.55;11.60;;;6.40;99.90;;;;;;5088338;28;20052;-76
2024/01/23 02:03:00;;;;;;;62.25;13.00;;;6.30;99.90;;;;;;5077884;28;20040;-74
2024/01/23 02:05:26;;;;;;;60.20;11.70;;;6.30;99.90;;;;;;5078934;28;20060;-75
2024/01/23 02:07:52;;;;;;;61.78;13.00;;;6.30;99.90;;;;;;5082858;28;20050;-76
2024/01/23 02:10:17;;;;;;;73.07;13.23;;;6.20;99.90;;;;;;5074194;28;20044;-75
2024/01/23 02:12:43;;;;;;;61.90;12.70;;;6.20;99.90;;;;;;5080432;28;20059;-76
2024/01/23 02:15:09;;;;;;;67.60;13.25;;;6.10;99.90;;;;;;5078524;28;20055;-76
2024/01/23 02:17:34;;;;;;;56.70;12.15;;;6.10;99.90;;;;;;5089629;28;20161;-76
2024/01/23 02:20:00;;;;;;;71.93;13.73;;;6.10;99.90;;;;;;5074692;28;20444;-76
2024/01/23 02:22:25;;;;;;;83.38;15.48;;;6.00;99.90;;;;;;5078035;28;20040;-76
2024/01/23 02:24:51;;;;;;;66.97;13.15;;;6.00;99.90;;;;;;5088591;28;20126;-77
2024/01/23 02:27:17;;;;;;;53.75;12.43;;;6.00;99.90;;;;;;5083377;28;20090;-76
2024/01/23 02:29:42;;;;;;;72.63;13.43;;;5.90;99.90;;;;;;5073073;28;20047;-77
2024/01/23 02:32:08;;;;;;;73.07;13.18;;;5.90;99.90;;;;;;5075618;28;20106;-76
2024/01/23 02:34:33;;;;;;;60.67;14.18;;;5.90;99.90;;;;;;5080897;28;20055;-76
2024/01/23 02:37:00;;;;;;;80.68;13.63;;;5.90;99.90;;;;;;5085738;28;20052;-77
2024/01/23 02:39:27;;;;;;;75.65;13.90;;;5.90;99.90;;;;;;5078014;28;20048;-76
2024/01/23 02:41:53;;;;;;;59.78;11.95;;;5.80;99.90;;;;;;5086207;28;20052;-77
2024/01/23 02:44:19;;;;;;;61.20;13.40;;;5.80;99.90;;;;;;5058595;28;20039;-76
2024/01/23 02:46:44;;;;;;;65.03;13.38;;;5.80;99.90;;;;;;5074490;28;20063;-76
2024/01/23 02:49:10;;;;;;;86.03;14.82;;;5.80;99.90;;;;;;5078513;28;20036;-76
2024/01/23 02:51:35;;;;;;;60.53;12.95;;;5.80;99.90;;;;;;5071929;28;20042;-77
2024/01/23 02:54:01;;;;;;;74.38;13.80;;;5.70;99.90;;;;;;5075350;28;20126;-76
2024/01/23 02:56:28;;;;;;;93.60;14.13;;;5.70;99.90;;;;;;5074054;28;20078;-77
2024/01/23 02:58:53;;;;;;;53.10;12.50;;;5.70;99.90;;;;;;5076073;28;20045;-77
2024/01/23 03:01:19;;;;;;;69.45;13.93;;;5.70;99.90;;;;;;5078112;28;20055;-76
2024/01/23 03:03:44;;;;;;;71.82;12.43;;;5.70;99.90;;;;;;5079442;28;20086;-76
2024/01/23 03:06:10;;;;;;;71.40;13.68;;;5.80;99.90;;;;;;5078892;28;20048;-76
2024/01/23 03:08:35;;;;;;;71.28;13.02;;;5.70;99.90;;;;;;5075116;28;20044;-76
2024/01/23 03:11:01;;;;;;;79.82;13.75;;;5.80;99.90;;;;;;5081487;28;20076;-76
2024/01/23 03:13:27;;;;;;;65.65;12.93;;;5.70;99.90;;;;;;5081842;28;20063;-76
2024/01/23 03:15:53;;;;;;;81.25;13.18;;;5.80;99.90;;;;;;5078889;28;20219;-76
2024/01/23 03:18:19;;;;;;;68.65;13.00;;;5.70;99.90;;;;;;5079536;28;20141;-76
2024/01/23 03:20:46;;;;;;;78.78;15.65;;;5.70;99.90;;;;;;5072969;28;20056;-76
2024/01/23 03:23:11;;;;;;;83.30;14.57;;;5.70;99.90;;;;;;5075517;28;20076;-76
2024/01/23 03:25:37;;;;;;;76.03;14.73;;;5.80;99.90;;;;;;5083704;28;20149;-76
2024/01/23 03:28:04;;;;;;;77.25;15.20;;;5.80;99.90;;;;;;5077236;28;20053;-76
2024/01/23 03:30:31;;;;;;;82.55;14.65;;;5.80;99.90;;;;;;5076415;28;20048;-76
2024/01/23 03:32:58;;;;;;;81.78;14.52;;;5.90;99.90;;;;;;5078050;28;20051;-76
2024/01/23 03:35:24;;;;;;;89.88;16.73;;;5.90;99.90;;;;;;5080614;28;20044;-76
2024/01/23 03:37:51;;;;;;;71.13;14.75;;;5.90;99.90;;;;;;5085347;28;20425;-77
2024/01/23 03:40:16;;;;;;;56.78;13.32;;;5.90;99.90;;;;;;5086838;28;20054;-76
2024/01/23 03:42:42;;;;;;;75.70;13.90;;;5.90;99.90;;;;;;5079822;28;20794;-76
2024/01/23 03:45:08;;;;;;;98.35;15.90;;;5.90;99.90;;;;;;5086855;28;20040;-76
2024/01/23 03:47:34;;;;;;;65.93;13.80;;;6.00;99.90;;;;;;5078400;28;20087;-76
2024/01/23 03:50:00;;;;;;;94.55;14.20;;;6.00;99.90;;;;;;5078291;28;20076;-76
2024/01/23 03:52:26;;;;;;;68.38;13.93;;;6.00;99.90;;;;;;5078832;28;20095;-76
2024/01/23 03:54:51;;;;;;;93.93;15.00;;;6.00;99.90;;;;;;5073679;28;20052;-76
2024/01/23 03:57:18;;;;;;;62.35;13.35;;;6.00;99.90;;;;;;5084264;28;20469;-76
2024/01/23 03:59:45;;;;;;;69.20;13.35;;;6.00;99.90;;;;;;5085369;28;20054;-76
2024/01/23 04:02:10;;;;;;;69.60;14.57;;;5.90;99.90;;;;;;5088169;28;20136;-76
2024/01/23 04:04:38;;;;;;;70.68;15.18;;;5.90;99.90;;;;;;5086043;28;20048;-76
2024/01/23 04:07:04;;;;;;;61.33;13.20;;;6.00;99.90;;;;;;5086311;28;20052;-76
2024/01/23 04:09:30;;;;;;;67.15;15.43;;;6.00;99.90;;;;;;5090755;28;20047;-76
2024/01/23 04:11:56;;;;;;;67.35;14.20;;;6.00;99.90;;;;;;5069038;28;20489;-77
2024/01/23 04:14:22;;;;;;;81.15;14.32;;;6.00;99.90;;;;;;5082004;28;20047;-76
2024/01/23 04:16:47;;;;;;;75.85;13.88;;;6.10;99.90;;;;;;5089647;28;20105;-76
2024/01/23 04:19:13;;;;;;;97.43;17.02;;;6.10;99.90;;;;;;5088034;28;20048;-76
2024/01/23 04:21:39;;;;;;;78.90;16.20;;;6.10;99.90;;;;;;5084137;28;20116;-76
2024/01/23 04:24:05;;;;;;;80.22;15.65;;;6.10;99.90;;;;;;5077428;28;20044;-76
2024/01/23 04:26:32;;;;;;;87.65;16.02;;;6.10;99.90;;;;;;5076754;28;20093;-76
2024/01/23 04:28:58;;;;;;;92.03;15.82;;;6.10;99.90;;;;;;5083522;28;20119;-76
2024/01/23 04:31:24;;;;;;;83.30;16.90;;;6.10;99.90;;;;;;5074203;28;20139;-76
2024/01/23 04:33:50;;;;;;;68.05;14.35;;;6.20;99.90;;;;;;5080368;28;20130;-76
2024/01/23 04:36:19;;;;;;;81.63;16.23;;;6.20;99.90;;;;;;5089338;28;20138;-76
2024/01/23 04:38:45;;;;;;;70.00;15.85;;;6.20;99.90;;;;;;5088357;28;20082;-76
2024/01/23 04:41:11;;;;;;;88.38;15.02;;;6.20;99.90;;;;;;5089112;28;20083;-76
2024/01/23 04:43:37;;;;;;;86.63;16.92;;;6.30;99.90;;;;;;5073192;28;20557;-76
2024/01/23 04:46:04;;;;;;;69.65;15.88;;;6.30;99.90;;;;;;5074234;28;20135;-76
2024/01/23 04:48:29;;;;;;;90.22;15.70;;;6.30;99.90;;;;;;5071960;28;20036;-76
2024/01/23 04:50:55;;;;;;;87.05;15.98;;;6.30;99.90;;;;;;5078415;28;20052;-76
2024/01/23 04:53:21;;;;;;;87.05;16.08;;;6.30;99.90;;;;;;5079141;28;20085;-76
2024/01/23 04:55:46;;;;;;;85.57;16.50;;;6.30;99.90;;;;;;5086937;28;20055;-76
2024/01/23 04:58:12;;;;;;;93.35;16.33;;;6.30;99.90;;;;;;5079182;28;20127;-76
2024/01/23 05:00:37;;;;;;;76.63;14.88;;;6.40;99.90;;;;;;5082743;28;20083;-76
2024/01/23 05:03:03;;;;;;;104.50;17.77;;;6.40;99.90;;;;;;5083688;28;20047;-76
2024/01/23 05:05:31;;;;;;;110.10;18.33;;;6.40;99.90;;;;;;5065447;28;20414;-76
2024/01/23 05:07:57;;;;;;;90.68;17.65;;;6.40;99.90;;;;;;5086293;28;20047;-76
2024/01/23 05:10:23;;;;;;;101.60;17.77;;;6.40;99.90;;;;;;5080826;28;20639;-76
2024/01/23 05:12:49;;;;;;;89.63;17.40;;;6.40;99.90;;;;;;5078156;28;20052;-76
2024/01/23 05:15:14;;;;;;;92.03;15.75;;;6.40;99.90;;;;;;5085155;28;20089;-76
2024/01/23 05:17:40;;;;;;;81.32;15.35;;;6.40;99.90;;;;;;5087050;28;20047;-76
2024/01/23 05:20:06;;;;;;;94.43;16.77;;;6.40;99.90;;;;;;5082574;28;20454;-76
2024/01/23 05:22:32;;;;;;;93.80;16.83;;;6.40;99.90;;;;;;5081311;28;20054;-76
2024/01/23 05:24:57;;;;;;;98.15;17.63;;;6.40;99.90;;;;;;5086311;28;20048;-76
2024/01/23 05:27:23;;;;;;;74.00;17.20;;;6.40;99.90;;;;;;5080777;28;20070;-76
2024/01/23 05:29:49;;;;;;;91.47;16.95;;;6.40;99.90;;;;;;5080823;28;20064;-76
2024/01/23 05:32:14;;;;;;;71.93;16.15;;;6.40;99.90;;;;;;5084404;28;20123;-76
2024/01/23 05:34:40;;;;;;;94.35;18.90;;;6.40;99.90;;;;;;5088012;28;20519;-76
2024/01/23 05:37:06;;;;;;;88.63;17.88;;;6.50;99.90;;;;;;5087489;28;20036;-76
2024/01/23 05:39:38;;;;;;;92.47;18.00;;;6.40;99.90;;;;;;5081993;28;20048;-76
2024/01/23 05:42:05;;;;;;;95.28;17.90;;;6.50;99.90;;;;;;5084102;28;20128;-76
2024/01/23 05:44:32;;;;;;;90.68;18.00;;;6.40;99.90;;;;;;5092863;28;20047;-76
2024/01/23 05:46:57;;;;;;;86.40;17.45;;;6.50;99.90;;;;;;5080324;28;20070;-76
2024/01/23 05:49:23;;;;;;;86.18;18.73;;;6.50;99.90;;;;;;5079080;28;20517;-76
2024/01/23 05:51:49;;;;;;;100.20;19.90;;;6.50;99.90;;;;;;5087540;28;20048;-76
2024/01/23 05:54:14;;;;;;;89.93;17.83;;;6.50;99.90;;;;;;5051258;28;1041660;-76
2024/01/23 05:56:40;;;;;;;90.80;17.88;;;6.50;99.90;;;;;;5059331;28;20538;-76
2024/01/23 05:59:06;;;;;;;108.03;19.35;;;6.50;99.90;;;;;;5072349;28;20049;-76
2024/01/23 06:01:32;;;;;;;99.38;19.80;;;6.50;99.90;;;;;;5080762;28;20040;-76
2024/01/23 06:03:58;;;;;;;106.85;18.58;;;6.50;99.90;;;;;;5086921;28;20580;-75
2024/01/23 06:06:24;;;;;;;92.32;18.60;;;6.50;99.90;;;;;;5085187;28;20062;-76
2024/01/23 06:08:50;;;;;;;101.35;18.63;;;6.50;99.90;;;;;;5087269;28;20523;-76
2024/01/23 06:11:15;;;;;;;134.68;22.05;;;6.50;99.90;;;;;;5086797;28;20063;-75
2024/01/23 06:13:41;;;;;;;79.28;18.13;;;6.60;99.90;;;;;;5091880;28;20064;-77
2024/01/23 06:16:07;;;;;;;117.75;20.85;;;6.60;99.90;;;;;;5074925;28;20051;-76
2024/01/23 06:18:32;;;;;;;99.97;20.77;;;6.60;99.90;;;;;;5086340;28;20121;-76
2024/01/23 06:20:58;;;;;;;80.53;17.50;;;6.60;99.90;;;;;;5080464;28;20048;-76
2024/01/23 06:23:24;;;;;;;119.57;21.95;;;6.60;99.90;;;;;;5070778;28;20041;-76
2024/01/23 06:25:50;;;;;;;103.35;19.20;;;6.60;99.90;;;;;;5079659;28;20779;-76
2024/01/23 06:28:16;;;;;;;112.97;20.75;;;6.60;99.90;;;;;;5079969;28;20093;-77
2024/01/23 06:30:42;;;;;;;128.35;21.58;;;6.60;99.90;;;;;;5075185;28;20045;-76
2024/01/23 06:33:08;;;;;;;118.35;20.80;;;6.60;99.90;;;;;;5079549;28;20039;-76
2024/01/23 06:35:33;;;;;;;102.85;20.35;;;6.60;99.90;;;;;;5077177;28;20048;-76
2024/01/23 06:38:11;;;;;;;112.25;19.73;;;6.60;99.90;;;;;;5091582;28;20139;-76
2024/01/23 06:40:37;;;;;;;98.85;19.00;;;6.60;99.90;;;;;;5086684;28;20142;-76
2024/01/23 06:43:03;;;;;;;94.28;20.08;;;6.60;99.90;;;;;;5080996;28;20123;-76
2024/01/23 06:45:28;;;;;;;105.35;20.50;;;6.60;99.90;;;;;;5086774;28;20044;-76
2024/01/23 06:47:54;;;;;;;122.38;20.00;;;6.60;99.90;;;;;;5088429;28;20056;-76
2024/01/23 06:50:19;;;;;;;119.25;21.27;;;6.60;99.90;;;;;;5079814;28;20048;-76
2024/01/23 06:52:45;;;;;;;103.95;20.70;;;6.50;99.90;;;;;;5081542;28;20051;-76
2024/01/23 06:55:10;;;;;;;116.95;22.20;;;6.50;99.90;;;;;;5084077;28;20059;-76
2024/01/23 06:57:36;;;;;;;108.40;21.17;;;6.40;99.90;;;;;;5086753;28;20038;-76
2024/01/23 07:00:03;;;;;;;127.32;21.35;;;6.40;99.90;;;;;;5094261;28;20078;-76
2024/01/23 07:02:29;;;;;;;109.85;19.70;;;6.30;99.90;;;;;;5080586;28;20123;-76
2024/01/23 07:04:54;;;;;;;114.22;20.17;;;6.30;99.90;;;;;;5080301;28;20439;-77
2024/01/23 07:07:20;;;;;;;106.18;19.83;;;6.20;99.90;;;;;;5082982;28;20051;-77
2024/01/23 07:09:45;;;;;;;105.55;22.17;;;6.20;99.90;;;;;;5081538;28;20051;-76
2024/01/23 07:12:11;;;;;;;108.10;20.67;;;6.20;99.90;;;;;;5081677;28;20071;-76
2024/01/23 07:14:37;;;;;;;112.13;20.20;;;6.10;99.90;;;;;;5086956;28;20039;-76
2024/01/23 07:17:02;;;;;;;98.10;20.45;;;6.10;99.90;;;;;;5085755;28;20048;-76
2024/01/23 07:19:28;;;;;;;118.20;22.00;;;6.00;99.90;;;;;;5085252;28;20047;-76
2024/01/23 07:21:53;;;;;;;116.78;20.42;;;6.00;99.90;;;;;;5085789;28;20036;-76
2024/01/23 07:24:19;;;;;;;121.10;20.50;;;6.00;99.90;;;;;;5077431;28;20059;-76
2024/01/23 07:26:45;;;;;;;113.65;22.88;;;5.90;99.90;;;;;;5074640;28;20051;-76
2024/01/23 07:29:10;;;;;;;115.93;21.80;;;5.90;99.90;;;;;;5075109;28;20052;-77
2024/01/23 07:31:37;;;;;;;117.95;21.80;;;5.80;99.90;;;;;;5066533;28;20045;-77
2024/01/23 07:34:03;;;;;;;110.40;21.35;;;5.80;99.90;;;;;;5077968;28;20165;-77
2024/01/23 07:36:28;;;;;;;114.68;21.02;;;5.70;99.90;;;;;;5075477;28;20051;-76
2024/01/23 07:38:54;;;;;;;108.13;21.13;;;5.70;99.90;;;;;;5083184;28;20113;-77
2024/01/23 07:41:20;;;;;;;112.78;21.60;;;5.70;99.90;;;;;;5084376;28;20741;-77
2024/01/23 07:43:46;;;;;;;110.70;21.63;;;5.60;99.90;;;;;;5077482;28;20045;-77
2024/01/23 07:46:12;;;;;;;124.53;22.40;;;5.60;99.90;;;;;;5066963;28;20090;-77
2024/01/23 07:48:38;;;;;;;139.20;23.13;;;5.60;99.90;;;;;;5074989;28;20489;-76
2024/01/23 07:51:04;;;;;;;119.00;21.30;;;5.60;99.90;;;;;;5085039;28;20059;-76
2024/01/23 07:53:30;;;;;;;133.77;25.35;;;5.60;99.90;;;;;;5071624;28;20131;-76
2024/01/23 07:55:57;;;;;;;108.93;21.42;;;5.60;99.90;;;;;;5074204;28;20059;-78
2024/01/23 07:58:23;;;;;;;136.00;23.65;;;5.60;99.90;;;;;;5073643;28;20110;-77
2024/01/23 08:00:48;;;;;;;114.30;22.15;;;5.60;99.90;;;;;;5063555;28;20610;-77
2024/01/23 08:03:14;;;;;;;115.15;21.55;;;5.60;99.90;;;;;;5075143;28;20049;-76
2024/01/23 08:05:40;;;;;;;127.45;22.45;;;5.60;99.90;;;;;;5078660;28;20135;-76
2024/01/23 08:08:06;;;;;;;128.13;23.95;;;5.60;99.90;;;;;;5081898;28;20140;-77
2024/01/23 08:10:34;;;;;;;127.95;23.13;;;5.60;99.90;;;;;;5071468;28;20163;-76
2024/01/23 08:13:00;;;;;;;126.13;21.70;;;5.70;99.90;;;;;;5068139;28;20048;-77
2024/01/23 08:15:25;;;;;;;138.85;22.30;;;5.70;99.90;;;;;;5081708;28;20040;-77
2024/01/23 08:17:51;;;;;;;108.20;20.42;;;5.70;99.90;;;;;;5074661;28;20056;-77
2024/01/23 08:20:18;;;;;;;106.78;21.73;;;5.70;99.90;;;;;;5071530;28;20054;-77
2024/01/23 08:22:43;;;;;;;101.80;21.55;;;5.60;99.90;;;;;;5064505;28;20086;-77
2024/01/23 08:25:09;;;;;;;121.78;22.33;;;5.70;99.90;;;;;;5084733;28;20599;-77
2024/01/23 08:27:35;;;;;;;124.57;22.40;;;5.70;99.90;;;;;;5070315;28;20088;-77
2024/01/23 08:30:01;;;;;;;126.65;24.73;;;5.70;99.90;;;;;;5066439;28;20076;-77
2024/01/23 08:32:27;;;;;;;121.25;22.15;;;5.70;99.90;;;;;;5099828;28;20090;-77
2024/01/23 08:34:53;;;;;;;128.20;23.40;;;5.70;99.90;;;;;;5081927;28;20589;-77
2024/01/23 08:37:18;;;;;;;113.15;22.45;;;5.70;99.90;;;;;;5069535;28;20032;-77
2024/01/23 08:39:44;;;;;;;126.93;20.88;;;5.60;99.90;;;;;;5082260;28;20043;-77
2024/01/23 08:42:09;;;;;;;115.55;21.88;;;5.60;99.90;;;;;;5085082;28;20054;-76
2024/01/23 08:44:40;;;;;;;128.57;20.90;;;5.60;99.90;;;;;;5079938;28;20085;-78
2024/01/23 08:47:06;;;;;;;115.32;22.40;;;5.60;99.90;;;;;;5076637;28;20115;-77
2024/01/23 08:49:31;;;;;;;115.10;21.65;;;5.60;99.90;;;;;;5071909;28;20159;-76
2024/01/23 08:51:57;;;;;;;114.60;21.30;;;5.70;99.90;;;;;;5075568;28;20045;-76
2024/01/23 08:54:23;;;;;;;111.78;20.65;;;5.70;99.90;;;;;;5086431;28;20689;-76
2024/01/23 08:56:51;;;;;;;110.57;20.33;;;5.70;99.90;;;;;;5081115;28;20118;-77
2024/01/23 08:59:17;;;;;;;112.53;19.35;;;5.70;99.90;;;;;;5085868;28;20134;-76
2024/01/23 09:01:42;;;;;;;107.57;22.30;;;5.70;99.90;;;;;;5066501;28;20843;-77
2024/01/23 09:04:08;;;;;;;94.75;18.42;;;5.70;99.90;;;;;;5086399;28;20051;-77
2024/01/23 09:06:33;;;;;;;118.22;21.98;;;5.70;99.90;;;;;;5085490;28;20058;-77
2024/01/23 09:08:59;;;;;;;117.68;21.33;;;5.80;99.90;;;;;;5082208;28;20055;-77
2024/01/23 09:11:25;;;;;;;111.70;21.63;;;5.80;99.90;;;;;;5068257;28;20079;-77
2024/01/23 09:13:51;;;;;;;109.28;22.65;;;5.80;99.90;;;;;;5080973;28;20043;-77
2024/01/23 09:16:17;;;;;;;99.03;19.50;;;5.80;99.90;;;;;;5089457;28;20105;-77
2024/01/23 09:18:48;;;;;;;114.80;21.02;;;5.90;99.90;;;;;;5088684;28;20083;-77
2024/01/23 09:21:16;;;;;;;140.27;21.95;;;5.90;99.90;;;;;;5087516;28;20901;-77
2024/01/23 09:23:42;;;;;;;101.93;20.52;;;5.90;99.90;;;;;;5086205;28;20050;-76
2024/01/23 09:26:12;;;;;;;108.75;21.20;;;5.90;99.90;;;;;;5073719;28;20040;-76
2024/01/23 09:28:37;;;;;;;104.93;22.33;;;6.00;99.90;;;;;;5077535;28;20413;-77
2024/01/23 09:31:04;;;;;;;109.63;22.50;;;6.00;99.90;;;;;;5085116;28;20056;-77
2024/01/23 09:33:29;;;;;;;135.57;23.13;;;6.00;99.90;;;;;;5084149;28;20055;-77
2024/01/23 09:35:55;;;;;;;123.47;21.17;;;6.10;99.90;;;;;;5085416;28;20044;-76
2024/01/23 09:38:21;;;;;;;124.93;22.80;;;6.20;99.90;;;;;;5086920;28;20097;-77
2024/01/23 09:40:49;;;;;;;104.35;20.08;;;6.20;99.90;;;;;;5081676;28;20044;-76
2024/01/23 09:43:19;;;;;;;107.60;19.60;;;6.20;99.90;;;;;;5086719;28;20159;-77
2024/01/23 09:45:47;;;;;;;106.32;21.05;;;6.30;99.90;;;;;;5076903;28;20877;-77
2024/01/23 09:48:14;;;;;;;110.13;21.00;;;6.40;99.90;;;;;;5076629;28;20044;-77
2024/01/23 09:50:41;;;;;;;114.03;21.92;;;6.40;99.90;;;;;;5086770;28;20062;-77
2024/01/23 09:53:09;;;;;;;106.13;19.42;;;6.50;99.90;;;;;;5074143;28;20060;-77
2024/01/23 09:55:35;;;;;;;101.25;21.73;;;6.60;99.90;;;;;;5077609;28;20155;-77
2024/01/23 09:58:02;;;;;;;116.43;22.48;;;6.60;99.90;;;;;;5086979;28;20394;-76
2024/01/23 10:00:28;;;;;;;117.80;19.45;;;6.70;99.90;;;;;;5084746;28;20075;-77
2024/01/23 10:02:54;;;;;;;116.07;20.40;;;6.80;99.90;;;;;;5079340;28;20071;-77
2024/01/23 10:05:22;;;;;;;97.88;20.77;;;6.90;99.90;;;;;;5076764;28;20052;-77
2024/01/23 10:07:48;;;;;;;94.72;21.38;;;7.00;99.90;;;;;;5071262;28;20065;-77
2024/01/23 10:10:16;;;;;;;95.93;18.00;;;7.10;99.90;;;;;;5090129;28;20044;-76
2024/01/23 10:12:46;;;;;;;136.15;22.70;;;7.10;99.90;;;;;;5086794;28;20123;-76
2024/01/23 10:15:22;;;;;;;123.43;23.30;;;7.20;99.90;;;;;;5088567;28;20554;-77
2024/01/23 10:17:48;;;;;;;123.20;21.58;;;7.20;99.90;;;;;;5089228;28;20101;-76
2024/01/23 10:20:15;;;;;;;104.15;19.85;;;7.30;99.90;;;;;;5074759;28;20059;-76
2024/01/23 10:22:43;;;;;;;109.68;22.15;;;7.30;99.90;;;;;;5081638;28;20048;-77
2024/01/23 10:25:15;;;;;;;;;;;7.40;99.90;;;;;;5088219;28;20555;-77
2024/01/23 10:27:40;;;;;;;91.07;19.73;;;7.50;99.90;;;;;;5079389;28;20020;-76
2024/01/23 10:30:07;;;;;;;100.22;21.98;;;7.60;99.90;;;;;;5083038;28;20119;-75
2024/01/23 10:32:33;;;;;;;102.43;20.55;;;7.60;99.90;;;;;;5083041;28;20043;-76
2024/01/23 10:34:59;;;;;;;107.47;18.55;;;7.70;99.90;;;;;;5086561;28;20048;-76
2024/01/23 10:37:25;;;;;;;93.38;20.70;;;7.70;99.90;;;;;;5086642;28;20147;-76
2024/01/23 10:39:51;;;;;;;137.43;23.05;;;7.80;99.90;;;;;;5084172;28;20056;-76
2024/01/23 10:42:18;;;;;;;101.95;20.88;;;7.80;99.90;;;;;;5093311;28;20040;-76
2024/01/23 10:44:50;;;;;;;96.03;19.75;;;7.90;99.90;;;;;;5079850;28;20048;-76
2024/01/23 10:47:18;;;;;;;109.50;20.27;;;7.90;99.90;;;;;;5080796;28;20039;-76
2024/01/23 10:49:45;;;;;;;106.97;18.48;;;8.00;99.90;;;;;;5070737;28;20750;-76
2024/01/23 10:52:17;;;;;;;131.00;21.38;;;8.10;99.90;;;;;;5079600;28;20048;-76
2024/01/23 10:54:45;;;;;;;90.05;17.85;;;8.10;99.90;;;;;;5082885;28;20139;-76
2024/01/23 10:57:22;;;;;;;95.03;18.83;;;8.20;99.90;;;;;;5081201;28;20043;-76
2024/01/23 10:59:48;;;;;;;89.78;17.40;;;8.20;99.90;;;;;;5084583;28;20491;-77
2024/01/23 11:02:43;;;;;;;103.95;20.02;;;8.20;99.90;;;;;;5083981;28;20101;-75
2024/01/23 11:05:09;;;;;;;98.30;18.58;;;8.30;99.90;;;;;;5068255;28;20056;-75
2024/01/23 11:07:49;;;;;;;101.25;19.10;;;8.30;99.90;;;;;;5086440;28;20405;-75
2024/01/23 11:10:31;;;;;;;110.65;19.33;;;8.40;99.90;;;;;;5064349;28;20483;-75
2024/01/23 11:13:18;;;;;;;86.55;17.42;;;8.40;99.90;;;;;;5086890;28;20044;-75
2024/01/23 11:15:44;;;;;;;99.43;19.67;;;8.60;99.90;;;;;;5060665;28;20040;-74
2024/01/23 11:18:31;;;;;;;99.28;19.38;;;8.60;99.90;;;;;;5078302;28;20066;-76
2024/01/23 11:21:05;;;;;;;91.00;19.27;;;8.60;99.90;;;;;;5084390;28;20420;-76
2024/01/23 11:23:36;;;;;;;91.60;18.00;;;8.60;99.90;;;;;;5075110;28;20564;-76
2024/01/23 11:26:14;;;;;;;112.70;19.13;;;8.60;99.90;;;;;;5075075;28;20048;-76
2024/01/23 11:28:42;;;;;;;;;;;8.70;99.90;;;;;;5070111;28;20044;-76
2024/01/23 11:31:23;;;;;;;105.63;17.45;;;8.60;99.90;;;;;;5086162;28;19963;-77
2024/01/23 11:33:51;;;;;;;103.07;18.38;;;8.70;99.90;;;;;;5071141;28;20062;-76
2024/01/23 11:36:26;;;;;;;100.80;18.00;;;8.70;99.90;;;;;;5065768;28;20048;-76
2024/01/23 11:38:56;;;;;;;85.88;17.25;;;8.70;99.90;;;;;;5071386;28;20163;-76
2024/01/23 11:41:23;;;;;;;85.07;17.92;;;8.60;99.90;;;;;;5075735;28;20798;-76
2024/01/23 11:44:03;;;;;;;82.25;16.92;;;8.60;99.90;;;;;;5079996;28;20412;-76
2024/01/23 11:46:30;;;;;;;85.60;17.50;;;8.60;99.90;;;;;;5085594;28;20128;-75
2024/01/23 11:48:55;;;;;;;82.15;16.75;;;8.50;99.90;;;;;;5084119;28;20056;-76
2024/01/23 11:51:22;;;;;;;77.65;16.52;;;8.50;99.90;;;;;;5084075;28;20494;-76
2024/01/23 11:53:47;;;;;;;96.25;18.13;;;8.50;99.90;;;;;;5085359;28;20874;-76
2024/01/23 11:56:15;;;;;;;96.38;18.23;;;8.50;99.90;;;;;;5084216;28;20056;-76
2024/01/23 11:58:42;;;;;;;97.38;18.05;;;8.50;99.90;;;;;;5085255;28;20055;-76
2024/01/23 12:01:09;;;;;;;85.00;17.15;;;8.40;99.90;;;;;;5082288;28;20055;-76
2024/01/23 12:03:35;;;;;;;96.43;19.00;;;8.40;99.90;;;;;;5085455;28;20123;-75
2024/01/23 12:06:03;;;;;;;94.57;17.10;;;8.40;99.90;;;;;;5067414;28;20139;-76
2024/01/23 12:08:29;;;;;;;80.97;17.08;;;8.40;99.90;;;;;;5078913;28;20075;-76
2024/01/23 12:10:57;;;;;;;67.90;14.57;;;8.40;99.90;;;;;;5088712;28;20497;-76
2024/01/23 12:13:23;;;;;;;105.60;17.33;;;8.40;99.90;;;;;;5092949;28;20051;-76
2024/01/23 12:15:49;;;;;;;89.53;18.00;;;8.30;99.90;;;;;;5076399;28;20048;-76
2024/01/23 12:18:17;;;;;;;62.13;16.30;;;8.30;99.90;;;;;;5080481;28;20802;-76
2024/01/23 12:20:56;;;;;;;88.75;17.02;;;8.40;99.90;;;;;;5079360;28;20045;-76
2024/01/23 12:23:23;;;;;;;96.88;18.38;;;8.40;99.90;;;;;;5081167;28;20071;-75
2024/01/23 12:25:49;;;;;;;85.65;16.23;;;8.50;99.90;;;;;;5078872;28;20517;-76
2024/01/23 12:28:17;;;;;;;81.97;16.30;;;8.50;99.90;;;;;;5094167;28;20159;-76
2024/01/23 12:30:46;;;;;;;100.15;16.92;;;8.60;99.90;;;;;;5086166;28;20489;-76